Time;durP1;ratioP1;P1;durP2;ratioP2;P2;SDS_P1;SDS_P2;PMS_P1;PMS_P2;Temp;Humidity;BMP_temperature;BMP_pressure;BME280_temperature;BME280_humidity;BME280_pressure;Samples;Min_cycle;Max_cycle;Signal;HPM_P1;HPM_P2
2024/01/24 00:07:44;;;;;;;8.75;5.53;;;22.70;67.70;;;;;;5701644;26;87981;-60
2024/01/24 00:10:47;;;;;;;12.93;5.82;;;22.70;67.70;;;;;;6175333;28;90042;-60
2024/01/24 00:13:49;;;;;;;11.55;6.13;;;22.70;67.70;;;;;;6170038;28;89377;-60
2024/01/24 00:16:51;;;;;;;9.25;5.93;;;22.70;67.60;;;;;;6172588;28;89345;-60
2024/01/24 00:19:53;;;;;;;13.38;6.30;;;22.70;67.60;;;;;;6179622;28;89234;-60
2024/01/24 00:22:55;;;;;;;12.77;5.65;;;22.70;67.60;;;;;;6177562;28;89070;-60
2024/01/24 00:25:58;;;;;;;11.77;6.03;;;22.70;67.50;;;;;;6168027;28;88049;-60
2024/01/24 00:29:01;;;;;;;10.50;5.90;;;22.60;67.50;;;;;;6184720;28;89633;-60
2024/01/24 00:32:04;;;;;;;10.25;6.10;;;22.70;67.60;;;;;;6178845;28;88758;-60
2024/01/24 00:35:07;;;;;;;9.30;6.15;;;22.70;67.60;;;;;;6176368;28;89186;-61
2024/01/24 00:38:09;;;;;;;9.00;5.50;;;22.70;67.70;;;;;;6179542;28;89098;-61
2024/01/24 00:41:12;;;;;;;10.00;5.35;;;22.60;67.60;;;;;;6178761;28;90042;-61
2024/01/24 00:44:14;;;;;;;8.60;5.53;;;22.60;67.60;;;;;;6178092;28;89366;-60
2024/01/24 00:47:16;;;;;;;9.48;5.55;;;22.60;67.60;;;;;;6175105;28;88393;-59
2024/01/24 00:50:18;;;;;;;8.50;5.70;;;22.70;67.60;;;;;;6179948;28;89582;-60
2024/01/24 00:53:21;;;;;;;11.80;5.70;;;22.70;67.60;;;;;;6176145;28;89085;-60
2024/01/24 00:56:24;;;;;;;8.00;5.38;;;22.70;67.60;;;;;;6178370;28;89113;-60
2024/01/24 00:59:26;;;;;;;8.98;5.65;;;22.70;67.60;;;;;;6176903;28;89108;-60
2024/01/24 01:02:29;;;;;;;9.45;5.97;;;22.60;67.60;;;;;;6181353;28;88325;-60
2024/01/24 01:05:31;;;;;;;10.98;6.18;;;22.60;67.60;;;;;;6177601;28;89062;-60
2024/01/24 01:08:33;;;;;;;8.60;5.20;;;22.60;68.60;;;;;;6181087;28;89083;-61
2024/01/24 01:11:36;;;;;;;34.33;13.50;;;22.60;68.70;;;;;;6174373;28;90037;-59
2024/01/24 01:14:38;;;;;;;94.63;36.70;;;22.70;68.80;;;;;;6171764;28;89152;-59
2024/01/24 01:17:40;;;;;;;159.48;119.10;;;22.70;69.00;;;;;;6176384;28;91551;-60
2024/01/24 01:20:42;;;;;;;35.58;24.65;;;22.70;69.60;;;;;;6186276;28;89093;-60
2024/01/24 01:23:44;;;;;;;23.20;15.32;;;22.80;67.60;;;;;;6170507;28;89109;-60
2024/01/24 01:26:48;;;;;;;19.10;12.02;;;22.90;66.40;;;;;;6179314;28;89215;-59
2024/01/24 01:29:49;;;;;;;20.88;11.98;;;22.90;66.00;;;;;;6171017;28;89073;-59
2024/01/24 01:32:51;;;;;;;22.05;11.88;;;23.00;65.70;;;;;;6185073;28;88382;-60
2024/01/24 01:35:54;;;;;;;19.42;11.55;;;23.00;65.90;;;;;;6180949;28;89042;-60
2024/01/24 01:38:56;;;;;;;19.13;11.90;;;23.00;65.90;;;;;;6182662;28;88837;-60
2024/01/24 01:41:59;;;;;;;15.70;10.50;;;23.00;65.90;;;;;;6182371;28;90063;-60
2024/01/24 01:45:03;;;;;;;20.75;11.63;;;23.00;66.00;;;;;;6180199;28;89254;-60
2024/01/24 01:48:06;;;;;;;18.92;11.27;;;23.00;66.20;;;;;;6184184;28;89033;-60
2024/01/24 01:51:08;;;;;;;18.92;9.93;;;22.90;66.10;;;;;;6172312;28;87976;-60
2024/01/24 01:54:11;;;;;;;19.75;10.02;;;22.90;66.20;;;;;;6181639;28;89120;-60
2024/01/24 01:57:15;;;;;;;17.23;9.52;;;22.90;66.20;;;;;;6181981;28;89083;-60
2024/01/24 02:00:20;;;;;;;15.77;9.85;;;22.80;66.30;;;;;;6175106;28;89131;-60
2024/01/24 02:03:22;;;;;;;20.05;9.60;;;22.90;66.40;;;;;;6174675;28;88510;-60
2024/01/24 02:06:24;;;;;;;14.52;9.07;;;22.80;66.30;;;;;;6184826;28;89565;-59
2024/01/24 02:09:26;;;;;;;14.60;8.60;;;22.80;66.30;;;;;;6178514;28;89201;-59
2024/01/24 02:12:30;;;;;;;13.70;8.63;;;22.80;66.40;;;;;;6182579;28;90069;-60
2024/01/24 02:15:32;;;;;;;17.58;9.25;;;22.80;66.30;;;;;;6179785;28;89149;-60
2024/01/24 02:18:34;;;;;;;14.57;8.90;;;22.70;66.20;;;;;;6171994;28;89484;-60
2024/01/24 02:21:36;;;;;;;12.73;8.35;;;22.80;66.30;;;;;;6179052;28;89513;-60
2024/01/24 02:24:39;;;;;;;12.85;8.30;;;22.70;66.30;;;;;;6174348;28;89089;-60
2024/01/24 02:27:41;;;;;;;14.18;8.98;;;22.70;66.20;;;;;;6176085;28;87984;-60
2024/01/24 02:30:44;;;;;;;15.32;8.48;;;22.70;66.20;;;;;;6184713;28;89026;-60
2024/01/24 02:33:46;;;;;;;14.73;8.38;;;22.70;66.30;;;;;;6187062;28;88299;-60
2024/01/24 02:36:48;;;;;;;14.18;7.97;;;22.70;66.20;;;;;;6182070;28;87969;-60
2024/01/24 02:39:51;;;;;;;11.15;7.95;;;22.70;66.40;;;;;;6187062;28;89028;-60
2024/01/24 02:42:53;;;;;;;11.20;8.05;;;22.70;66.30;;;;;;6175459;28;91429;-59
2024/01/24 02:45:55;;;;;;;13.90;7.95;;;22.60;66.30;;;;;;6174918;28;89182;-59
2024/01/24 02:48:57;;;;;;;12.38;7.80;;;22.60;66.40;;;;;;6181469;28;89244;-60
2024/01/24 02:52:01;;;;;;;10.95;7.50;;;22.60;66.30;;;;;;6180376;28;89524;-60
2024/01/24 02:55:05;;;;;;;11.60;7.55;;;22.60;66.40;;;;;;6180522;28;89143;-59
2024/01/24 02:58:07;;;;;;;13.05;8.10;;;22.60;66.40;;;;;;6184806;28;89217;-59
2024/01/24 03:01:09;;;;;;;12.27;7.70;;;22.60;66.40;;;;;;6181602;28;89073;-60
2024/01/24 03:04:11;;;;;;;12.23;8.02;;;22.60;66.40;;;;;;6175867;28;88650;-60
2024/01/24 03:07:13;;;;;;;11.32;8.02;;;22.60;66.40;;;;;;6169782;28;89505;-60
2024/01/24 03:10:17;;;;;;;11.52;7.78;;;22.50;66.40;;;;;;6167556;28;88373;-60
2024/01/24 03:13:19;;;;;;;11.93;7.78;;;22.50;66.40;;;;;;6174351;28;89955;-60
2024/01/24 03:16:21;;;;;;;9.90;7.53;;;22.50;66.40;;;;;;6187358;28;89011;-60
2024/01/24 03:19:23;;;;;;;12.52;8.32;;;22.50;66.30;;;;;;6170470;28;88979;-60
2024/01/24 03:22:25;;;;;;;11.02;7.75;;;22.50;66.30;;;;;;6166519;28;89369;-60
2024/01/24 03:25:28;;;;;;;12.73;8.15;;;22.50;66.30;;;;;;6172288;28;89436;-60
2024/01/24 03:28:30;;;;;;;11.20;7.70;;;22.50;66.20;;;;;;6161033;28;89084;-60
2024/01/24 03:31:32;;;;;;;10.85;8.05;;;22.50;66.30;;;;;;6179768;28;89048;-60
2024/01/24 03:34:34;;;;;;;9.75;7.57;;;22.50;66.40;;;;;;6175545;28;88329;-60
2024/01/24 03:37:36;;;;;;;11.15;7.80;;;22.50;66.40;;;;;;6175822;28;89489;-60
2024/01/24 03:40:40;;;;;;;11.95;8.50;;;22.50;66.40;;;;;;6174619;28;89059;-60
2024/01/24 03:43:42;;;;;;;11.05;7.68;;;22.50;66.40;;;;;;6175123;28;90157;-60
2024/01/24 03:46:44;;;;;;;9.57;7.50;;;22.40;66.40;;;;;;6177717;28;89633;-60
2024/01/24 03:49:46;;;;;;;11.45;7.93;;;22.40;66.40;;;;;;6168183;28;89188;-60
2024/01/24 03:52:48;;;;;;;9.18;7.53;;;22.40;66.40;;;;;;6175326;28;89608;-60
2024/01/24 03:55:52;;;;;;;11.07;7.80;;;22.40;66.40;;;;;;6179097;28;89419;-60
2024/01/24 03:58:53;;;;;;;9.45;7.68;;;22.40;66.40;;;;;;6175504;28;87973;-60
2024/01/24 04:01:55;;;;;;;11.43;7.95;;;22.40;66.50;;;;;;6187129;28;87987;-60
2024/01/24 04:04:57;;;;;;;10.65;7.72;;;22.40;66.40;;;;;;6180502;28;88297;-60
2024/01/24 04:07:59;;;;;;;9.38;7.40;;;22.40;66.40;;;;;;6184430;28;87977;-60
2024/01/24 04:11:03;;;;;;;10.85;7.82;;;22.40;66.40;;;;;;6176960;28;89039;-60
2024/01/24 04:14:07;;;;;;;9.30;7.32;;;22.40;66.40;;;;;;6178886;28;90041;-60
2024/01/24 04:17:09;;;;;;;9.90;7.38;;;22.40;66.40;;;;;;6179257;28;89411;-60
2024/01/24 04:20:11;;;;;;;11.93;8.13;;;22.40;66.40;;;;;;6176814;28;89050;-60
2024/01/24 04:23:13;;;;;;;10.05;7.63;;;22.40;66.40;;;;;;6178940;28;88085;-60
2024/01/24 04:26:21;;;;;;;11.38;7.35;;;22.30;66.30;;;;;;6186901;28;87391;-60
2024/01/24 04:29:23;;;;;;;10.10;7.25;;;22.40;66.40;;;;;;6160330;28;89194;-60
2024/01/24 04:32:25;;;;;;;10.40;8.00;;;22.40;66.40;;;;;;6160827;28;89547;-60
2024/01/24 04:35:27;;;;;;;8.70;7.20;;;22.40;66.50;;;;;;6166444;28;88749;-60
2024/01/24 04:38:29;;;;;;;8.65;7.30;;;22.30;66.40;;;;;;6169870;28;89138;-60
2024/01/24 04:41:32;;;;;;;10.70;7.30;;;22.30;66.50;;;;;;6174498;28;89150;-60
2024/01/24 04:44:34;;;;;;;8.82;7.20;;;22.30;66.50;;;;;;6179872;28;90055;-60
2024/01/24 04:47:38;;;;;;;9.52;7.40;;;22.30;66.60;;;;;;6181446;28;89123;-59
2024/01/24 04:50:40;;;;;;;10.55;7.30;;;22.40;66.70;;;;;;6177314;28;89370;-60
2024/01/24 04:53:42;;;;;;;11.18;7.78;;;22.30;66.60;;;;;;6172605;28;89421;-60
2024/01/24 04:56:46;;;;;;;9.48;7.30;;;22.30;66.60;;;;;;6174491;28;89050;-60
2024/01/24 04:59:48;;;;;;;8.95;7.13;;;22.30;66.70;;;;;;6170986;28;90369;-60
2024/01/24 05:02:50;;;;;;;7.57;6.78;;;22.30;66.60;;;;;;6170945;28;89440;-59
2024/01/24 05:05:52;;;;;;;8.07;6.68;;;22.30;66.60;;;;;;6182492;28;87279;-60
2024/01/24 05:08:54;;;;;;;8.27;6.60;;;22.40;66.70;;;;;;6176233;28;89291;-60
2024/01/24 05:11:57;;;;;;;9.23;6.88;;;22.40;66.60;;;;;;6173956;28;89715;-60
2024/01/24 05:14:59;;;;;;;8.32;6.82;;;22.40;66.60;;;;;;6168803;28;90094;-60
2024/01/24 05:18:01;;;;;;;8.50;6.93;;;22.30;66.40;;;;;;6179690;28;89141;-60
2024/01/24 05:21:03;;;;;;;9.10;6.68;;;22.40;66.50;;;;;;6174450;28;87960;-61
2024/01/24 05:24:06;;;;;;;7.18;6.40;;;22.40;66.50;;;;;;6168922;28;88963;-60
2024/01/24 05:27:09;;;;;;;8.13;6.55;;;22.40;66.50;;;;;;6175875;28;89154;-60
2024/01/24 05:30:12;;;;;;;7.88;6.43;;;22.30;66.40;;;;;;6177246;28;89098;-60
2024/01/24 05:33:14;;;;;;;7.90;6.30;;;22.40;66.50;;;;;;6179522;28;89078;-60
2024/01/24 05:36:16;;;;;;;7.40;6.30;;;22.40;66.40;;;;;;6172149;28;88436;-60
2024/01/24 05:39:18;;;;;;;8.65;6.43;;;22.30;66.40;;;;;;6177869;28;89069;-61
2024/01/24 05:42:22;;;;;;;7.38;6.28;;;22.40;66.40;;;;;;6186546;28;89451;-60
2024/01/24 05:45:24;;;;;;;7.95;5.93;;;22.30;66.40;;;;;;6177984;28;90410;-60
2024/01/24 05:48:26;;;;;;;7.75;6.13;;;22.30;66.40;;;;;;6179363;28;89426;-60
2024/01/24 05:51:28;;;;;;;7.88;6.30;;;22.30;66.40;;;;;;6171760;28;89179;-61
2024/01/24 05:54:29;;;;;;;6.55;5.88;;;22.30;66.40;;;;;;6181919;28;89411;-60
2024/01/24 05:57:33;;;;;;;7.25;6.25;;;22.30;66.50;;;;;;6191129;28;87109;-60
2024/01/24 06:00:36;;;;;;;7.13;6.10;;;22.30;66.60;;;;;;6182390;28;89038;-60
2024/01/24 06:03:38;;;;;;;7.57;5.80;;;22.40;66.60;;;;;;6181570;28;89612;-60
2024/01/24 06:06:40;;;;;;;6.57;5.57;;;22.30;66.60;;;;;;6181145;28;87537;-60
2024/01/24 06:09:42;;;;;;;6.68;5.40;;;22.40;66.60;;;;;;6189621;28;89473;-60
2024/01/24 06:12:45;;;;;;;6.95;5.97;;;22.40;66.60;;;;;;6180182;28;89151;-60
2024/01/24 06:15:47;;;;;;;7.88;5.82;;;22.30;66.50;;;;;;6181163;28;90035;-60
2024/01/24 06:18:49;;;;;;;9.35;6.05;;;22.40;66.50;;;;;;6179765;28;89056;-60
2024/01/24 06:21:51;;;;;;;7.00;5.65;;;22.40;66.40;;;;;;6180891;28;89075;-61
2024/01/24 06:24:53;;;;;;;6.40;5.40;;;22.40;66.40;;;;;;6182293;28;87939;-60
2024/01/24 06:27:56;;;;;;;5.97;5.38;;;22.40;66.40;;;;;;6182456;28;89010;-60
2024/01/24 06:30:59;;;;;;;7.13;5.55;;;22.40;66.40;;;;;;6170148;28;87984;-60
2024/01/24 06:34:01;;;;;;;6.65;5.60;;;22.30;66.30;;;;;;6167603;28;89490;-60
2024/01/24 06:37:03;;;;;;;6.55;5.80;;;22.30;66.30;;;;;;6175450;28;88581;-61
2024/01/24 06:40:07;;;;;;;7.10;5.50;;;22.30;66.30;;;;;;6167902;28;91465;-60
2024/01/24 06:43:12;;;;;;;8.23;5.82;;;22.40;66.30;;;;;;6178377;28;89217;-60
2024/01/24 06:46:14;;;;;;;7.65;5.65;;;22.30;66.20;;;;;;6174371;28;90399;-60
2024/01/24 06:49:16;;;;;;;5.85;5.20;;;22.40;66.40;;;;;;6181439;28;89097;-60
2024/01/24 06:52:18;;;;;;;5.90;5.22;;;22.40;66.30;;;;;;6180609;28;89395;-61
2024/01/24 06:55:21;;;;;;;7.60;5.60;;;22.30;66.30;;;;;;6182211;28;89410;-60
2024/01/24 06:58:24;;;;;;;6.40;5.35;;;22.30;66.30;;;;;;6180421;28;89196;-60
2024/01/24 07:01:26;;;;;;;5.72;5.03;;;22.30;66.30;;;;;;6180117;28;89087;-60
2024/01/24 07:04:29;;;;;;;5.78;4.72;;;22.30;66.40;;;;;;6181307;28;89080;-60
2024/01/24 07:07:31;;;;;;;7.30;5.10;;;22.30;66.40;;;;;;6185277;28;88311;-60
2024/01/24 07:10:33;;;;;;;7.00;5.20;;;22.40;66.50;;;;;;6179578;28;89044;-60
2024/01/24 07:13:37;;;;;;;6.60;5.40;;;22.30;66.40;;;;;;6180435;28;89049;-60
2024/01/24 07:16:39;;;;;;;5.95;4.75;;;22.30;66.40;;;;;;6195902;28;90032;-60
2024/01/24 07:19:41;;;;;;;5.50;4.88;;;22.30;66.40;;;;;;6171254;28;87976;-61
2024/01/24 07:22:43;;;;;;;5.53;4.72;;;22.40;66.50;;;;;;6181307;28;89096;-60
2024/01/24 07:25:45;;;;;;;5.47;4.80;;;22.40;66.50;;;;;;6190597;28;89188;-60
2024/01/24 07:28:48;;;;;;;6.10;4.90;;;22.30;66.40;;;;;;6180365;28;89394;-60
2024/01/24 07:31:50;;;;;;;7.53;5.35;;;22.30;66.40;;;;;;6181967;28;89060;-60
2024/01/24 07:34:52;;;;;;;6.22;5.22;;;22.30;66.40;;;;;;6179401;28;88177;-60
2024/01/24 07:37:54;;;;;;;6.15;4.80;;;22.30;66.40;;;;;;6181270;28;88995;-60
2024/01/24 07:40:56;;;;;;;5.75;4.78;;;22.30;66.40;;;;;;6177344;28;89190;-60
2024/01/24 07:43:59;;;;;;;5.10;4.40;;;22.40;66.40;;;;;;6181550;28;89049;-60
2024/01/24 07:47:03;;;;;;;6.90;4.82;;;22.30;66.40;;;;;;6178720;28;90080;-60
2024/01/24 07:50:06;;;;;;;5.93;4.75;;;22.40;66.40;;;;;;6177343;28;89280;-61
2024/01/24 07:53:08;;;;;;;6.28;4.70;;;22.40;66.40;;;;;;6177972;28;89250;-60
2024/01/24 07:56:10;;;;;;;5.93;4.60;;;22.30;66.40;;;;;;6178042;28;89145;-61
2024/01/24 07:59:16;;;;;;;4.82;4.35;;;22.40;66.60;;;;;;6181135;28;89071;-60
2024/01/24 08:02:18;;;;;;;5.53;4.88;;;22.30;66.60;;;;;;6172819;28;89885;-61
2024/01/24 08:05:22;;;;;;;5.60;4.65;;;22.30;66.60;;;;;;6183551;28;89054;-60
2024/01/24 08:08:24;;;;;;;9.02;5.10;;;22.30;66.60;;;;;;6178537;28;88405;-60
2024/01/24 08:11:26;;;;;;;6.00;4.93;;;22.40;66.60;;;;;;6170255;28;88392;-60
2024/01/24 08:14:29;;;;;;;5.57;4.47;;;22.30;66.60;;;;;;6172121;28;89552;-60
2024/01/24 08:17:31;;;;;;;5.65;4.95;;;22.30;66.60;;;;;;6178458;28;90114;-60
2024/01/24 08:20:33;;;;;;;6.70;5.05;;;22.30;66.50;;;;;;6178299;28;89637;-60
2024/01/24 08:23:35;;;;;;;7.20;5.32;;;22.40;66.60;;;;;;6180989;28;89110;-60
2024/01/24 08:26:37;;;;;;;5.80;4.97;;;22.40;66.60;;;;;;6170052;28;87904;-61
2024/01/24 08:29:41;;;;;;;5.47;4.50;;;22.30;66.60;;;;;;6177357;28;89029;-61
2024/01/24 08:32:43;;;;;;;5.70;4.47;;;22.30;66.50;;;;;;6177648;28;89231;-61
2024/01/24 08:35:45;;;;;;;6.30;5.00;;;22.30;66.60;;;;;;6179836;28;89011;-60
2024/01/24 08:38:47;;;;;;;6.30;5.00;;;22.30;66.60;;;;;;6179963;28;88315;-60
2024/01/24 08:41:49;;;;;;;5.75;4.45;;;22.40;66.70;;;;;;6168200;28;89277;-60
2024/01/24 08:44:53;;;;;;;5.80;4.53;;;22.40;66.70;;;;;;6176284;28;89157;-60
2024/01/24 08:47:55;;;;;;;6.38;4.55;;;22.40;66.70;;;;;;6178970;28;90039;-60
2024/01/24 08:50:56;;;;;;;6.05;4.55;;;22.40;66.70;;;;;;6169947;28;89414;-60
2024/01/24 08:53:59;;;;;;;5.63;4.55;;;22.30;66.70;;;;;;6175465;28;89368;-60
2024/01/24 08:57:01;;;;;;;6.35;4.63;;;22.40;66.80;;;;;;6174541;28;89008;-60
2024/01/24 09:00:08;;;;;;;6.57;4.82;;;22.30;66.80;;;;;;6176792;28;87958;-60
2024/01/24 09:03:11;;;;;;;6.45;4.60;;;22.30;66.90;;;;;;6178347;28;89299;-60
2024/01/24 09:06:13;;;;;;;5.78;4.22;;;22.30;66.90;;;;;;6176895;28;89025;-60
2024/01/24 09:09:15;;;;;;;6.60;4.82;;;22.40;66.90;;;;;;6190319;28;88592;-60
2024/01/24 09:12:17;;;;;;;5.90;4.65;;;22.40;67.80;;;;;;6178588;28;89170;-60
2024/01/24 09:15:20;;;;;;;4.97;4.35;;;22.40;66.90;;;;;;6176903;28;89081;-60
2024/01/24 09:18:22;;;;;;;7.13;4.07;;;22.40;66.90;;;;;;6186827;28;90093;-60
2024/01/24 09:21:24;;;;;;;4.88;4.00;;;22.40;66.90;;;;;;6181133;28;89476;-60
2024/01/24 09:24:26;;;;;;;4.60;4.03;;;22.40;66.90;;;;;;6201511;28;89216;-60
2024/01/24 09:27:28;;;;;;;4.78;3.88;;;22.40;66.90;;;;;;6189328;28;89402;-60
2024/01/24 09:30:31;;;;;;;6.85;4.57;;;22.40;66.90;;;;;;6169381;28;89064;-60
2024/01/24 09:33:33;;;;;;;6.20;4.07;;;22.40;66.90;;;;;;6174433;28;89099;-60
2024/01/24 09:36:35;;;;;;;6.13;4.55;;;22.40;66.90;;;;;;6175268;28;89234;-60
2024/01/24 09:39:37;;;;;;;5.93;4.00;;;22.40;66.90;;;;;;6172369;28;88548;-60
2024/01/24 09:42:42;;;;;;;4.80;3.53;;;22.40;66.90;;;;;;6173156;28;88875;-60
2024/01/24 09:45:46;;;;;;;4.72;3.80;;;22.40;66.90;;;;;;6185617;28;89220;-60
2024/01/24 09:48:48;;;;;;;4.68;3.78;;;22.40;66.90;;;;;;6174877;28;90025;-60
2024/01/24 09:51:51;;;;;;;4.25;3.70;;;22.40;66.90;;;;;;6169651;28;89395;-60
2024/01/24 09:54:57;;;;;;;4.93;3.90;;;22.40;66.90;;;;;;6178403;28;89087;-60
2024/01/24 09:57:59;;;;;;;5.38;4.03;;;22.40;67.00;;;;;;6183879;28;89383;-60
2024/01/24 10:01:05;;;;;;;6.30;3.88;;;22.40;67.00;;;;;;6174939;28;87968;-60
2024/01/24 10:04:08;;;;;;;6.03;4.10;;;22.40;67.00;;;;;;6171020;28;89056;-60
2024/01/24 10:07:11;;;;;;;5.60;3.70;;;22.40;67.00;;;;;;6187618;28;87975;-60
2024/01/24 10:10:15;;;;;;;4.85;3.63;;;22.30;66.90;;;;;;6179389;28;88323;-60
2024/01/24 10:13:17;;;;;;;5.63;3.67;;;22.40;66.90;;;;;;6190895;28;89549;-60
2024/01/24 10:16:21;;;;;;;4.47;3.42;;;22.40;66.90;;;;;;6161968;28;89257;-60
2024/01/24 10:19:24;;;;;;;3.90;3.00;;;22.40;66.90;;;;;;6173736;28;89935;-60
2024/01/24 10:22:26;;;;;;;3.47;3.00;;;22.40;66.90;;;;;;6172905;28;89289;-60
2024/01/24 10:25:28;;;;;;;4.70;3.42;;;22.40;66.80;;;;;;6172670;28;89234;-60
2024/01/24 10:28:33;;;;;;;4.85;3.30;;;22.40;66.90;;;;;;6171864;28;88968;-60
2024/01/24 10:31:36;;;;;;;4.38;3.20;;;22.40;66.80;;;;;;6174021;28;89129;-60
2024/01/24 10:34:39;;;;;;;4.75;3.20;;;22.40;66.80;;;;;;6178083;28;88274;-60
2024/01/24 10:37:42;;;;;;;5.03;3.30;;;22.40;66.80;;;;;;6179967;28;89063;-60
2024/01/24 10:40:44;;;;;;;4.47;3.03;;;22.40;66.80;;;;;;6189405;28;88305;-60
2024/01/24 10:43:51;;;;;;;3.10;2.70;;;22.40;66.80;;;;;;6178319;28;89154;-60
2024/01/24 10:46:55;;;;;;;3.33;2.80;;;22.30;66.70;;;;;;6181804;28;89065;-60
2024/01/24 10:49:58;;;;;;;3.55;2.83;;;22.40;66.90;;;;;;6173790;28;90492;-60
2024/01/24 10:53:02;;;;;;;3.67;2.58;;;22.30;66.90;;;;;;6176916;28;88970;-60
2024/01/24 10:56:06;;;;;;;3.58;2.75;;;22.40;67.00;;;;;;6172892;28;87974;-60
2024/01/24 10:59:10;;;;;;;3.25;2.50;;;22.30;67.10;;;;;;6175984;28;89169;-60
2024/01/24 11:02:13;;;;;;;4.13;2.80;;;22.40;67.20;;;;;;6170288;28;89350;-60
2024/01/24 11:05:20;;;;;;;4.00;2.70;;;22.30;67.10;;;;;;6181007;28;89129;-60
2024/01/24 11:08:26;;;;;;;4.88;2.90;;;22.30;66.90;;;;;;6175599;28;89202;-60
2024/01/24 11:11:32;;;;;;;3.78;2.65;;;22.40;66.90;;;;;;6179404;28;87364;-60
2024/01/24 11:14:36;;;;;;;3.28;2.53;;;22.40;66.90;;;;;;6180698;28;88051;-60
2024/01/24 11:17:39;;;;;;;4.18;2.85;;;22.40;66.90;;;;;;6180028;28;87986;-60
2024/01/24 11:20:46;;;;;;;4.55;2.65;;;22.40;66.90;;;;;;6167906;28;89929;-60
2024/01/24 11:23:50;;;;;;;6.05;3.42;;;22.40;66.90;;;;;;6171972;28;87941;-60
2024/01/24 11:26:52;;;;;;;4.40;2.58;;;22.40;66.90;;;;;;6171007;28;89154;-60
2024/01/24 11:29:55;;;;;;;2.90;2.33;;;22.40;66.80;;;;;;6171988;28;88786;-60
2024/01/24 11:33:04;;;;;;;3.88;2.08;;;22.40;66.90;;;;;;6183950;28;89017;-60
2024/01/24 11:36:13;;;;;;;4.60;2.70;;;22.40;66.90;;;;;;6175734;28;89218;-60
2024/01/24 11:39:37;;;;;;;2.90;2.10;;;22.40;66.90;;;;;;6174780;28;89288;-60
2024/01/24 11:42:43;;;;;;;4.88;2.75;;;22.40;66.80;;;;;;6175503;28;88509;-60
2024/01/24 11:45:44;;;;;;;2.83;2.13;;;22.40;66.90;;;;;;6178273;28;89006;-60
2024/01/24 11:48:48;;;;;;;2.13;1.80;;;22.40;67.10;;;;;;6181546;28;89023;-60
2024/01/24 11:52:01;;;;;;;2.55;2.00;;;22.40;67.10;;;;;;6182121;28;90123;-60
2024/01/24 11:55:03;;;;;;;3.30;2.10;;;22.40;67.20;;;;;;6168918;28;89077;-60
2024/01/24 11:58:06;;;;;;;2.75;1.90;;;22.30;67.20;;;;;;6175402;28;89087;-60
2024/01/24 12:01:09;;;;;;;2.63;2.00;;;22.40;67.20;;;;;;6169314;28;89215;-60
2024/01/24 12:04:12;;;;;;;2.90;2.03;;;22.30;67.20;;;;;;6180853;28;88056;-60
2024/01/24 12:07:14;;;;;;;4.75;2.63;;;22.30;67.20;;;;;;6182373;28;89133;-60
2024/01/24 12:10:16;;;;;;;3.63;2.22;;;22.30;67.20;;;;;;6170744;28;89365;-60
2024/01/24 12:13:21;;;;;;;3.05;2.15;;;22.30;67.20;;;;;;6192374;28;88391;-60
2024/01/24 12:16:25;;;;;;;2.67;2.03;;;22.30;67.30;;;;;;6191740;28;89127;-60
2024/01/24 12:19:30;;;;;;;3.50;2.20;;;22.30;67.30;;;;;;6168873;28;89169;-60
2024/01/24 12:22:32;;;;;;;2.50;1.65;;;22.30;67.40;;;;;;6179575;28;88956;-60
2024/01/24 12:25:34;;;;;;;2.65;1.80;;;22.30;67.40;;;;;;6178343;28;89221;-60
2024/01/24 12:28:36;;;;;;;4.28;2.33;;;22.30;67.40;;;;;;6167196;28;89231;-60
2024/01/24 12:31:40;;;;;;;2.88;1.92;;;22.40;67.40;;;;;;6177859;28;89142;-60
2024/01/24 12:34:48;;;;;;;2.72;1.90;;;22.30;67.40;;;;;;6176304;28;88886;-60
2024/01/24 12:37:50;;;;;;;2.47;1.73;;;22.30;67.40;;;;;;6180241;28;89137;-60
2024/01/24 12:40:52;;;;;;;3.75;1.90;;;22.30;67.40;;;;;;6167892;28;88985;-60
2024/01/24 12:43:56;;;;;;;3.10;1.80;;;22.30;67.40;;;;;;6168930;28;88425;-61
2024/01/24 12:47:01;;;;;;;2.53;1.60;;;22.30;67.40;;;;;;6178808;28;89188;-60
2024/01/24 12:50:04;;;;;;;2.25;1.50;;;22.30;67.40;;;;;;6173438;28;88061;-60
2024/01/24 12:53:06;;;;;;;2.70;1.70;;;22.30;67.40;;;;;;6167181;28;89961;-60
2024/01/24 12:56:08;;;;;;;2.60;1.73;;;22.30;67.40;;;;;;6173564;28;89089;-60
2024/01/24 12:59:10;;;;;;;2.28;1.60;;;22.30;67.30;;;;;;6170437;28;89073;-60
2024/01/24 13:02:13;;;;;;;2.28;1.50;;;22.30;67.30;;;;;;6175063;28;89350;-60
2024/01/24 13:05:17;;;;;;;2.67;1.70;;;22.30;67.20;;;;;;6170179;28;89071;-60
2024/01/24 13:08:19;;;;;;;2.75;1.70;;;22.30;67.20;;;;;;6174206;28;87749;-60
2024/01/24 13:11:21;;;;;;;3.08;1.67;;;22.30;67.20;;;;;;6186279;28;89074;-60
2024/01/24 13:14:23;;;;;;;3.08;1.55;;;22.30;67.20;;;;;;6159334;28;87223;-60
2024/01/24 13:17:25;;;;;;;1.95;1.38;;;22.30;67.20;;;;;;6174733;28;89412;-60
2024/01/24 13:20:29;;;;;;;2.67;1.70;;;22.30;67.20;;;;;;6165917;28;89135;-61
2024/01/24 13:23:30;;;;;;;3.33;1.73;;;22.30;67.20;;;;;;6170267;28;90001;-60
2024/01/24 13:26:33;;;;;;;1.73;1.33;;;22.30;67.20;;;;;;6169436;28;87082;-60
2024/01/24 13:29:35;;;;;;;2.22;1.45;;;22.30;67.20;;;;;;6171049;28;89134;-60
2024/01/24 13:32:37;;;;;;;1.75;1.30;;;22.40;67.20;;;;;;6180446;28;89054;-60
2024/01/24 13:35:40;;;;;;;2.17;1.40;;;22.30;67.20;;;;;;6172821;28;89096;-61
2024/01/24 13:38:42;;;;;;;1.92;1.40;;;22.30;67.20;;;;;;6167823;28;89100;-60
2024/01/24 13:41:45;;;;;;;2.40;1.50;;;22.30;67.30;;;;;;6170168;28;89490;-60
2024/01/24 13:44:47;;;;;;;1.90;1.38;;;22.30;67.40;;;;;;6169622;28;88294;-60
2024/01/24 13:47:49;;;;;;;3.20;1.65;;;22.30;67.40;;;;;;6182620;28;88713;-60
2024/01/24 13:50:52;;;;;;;1.90;1.25;;;22.30;67.40;;;;;;6184932;28;89008;-60
2024/01/24 13:53:54;;;;;;;3.40;1.60;;;22.30;67.40;;;;;;6183320;28;88741;-60
2024/01/24 13:56:56;;;;;;;1.95;1.23;;;22.30;67.20;;;;;;6184086;28;88262;-60
2024/01/24 13:59:58;;;;;;;3.08;1.58;;;22.30;67.20;;;;;;6185073;28;89154;-60
2024/01/24 14:03:00;;;;;;;2.95;1.67;;;22.30;67.20;;;;;;6182346;28;88169;-59
2024/01/24 14:06:04;;;;;;;1.92;1.30;;;22.30;67.20;;;;;;6178209;28;88558;-60
2024/01/24 14:09:07;;;;;;;2.72;1.35;;;22.30;67.10;;;;;;6176734;28;89516;-60
2024/01/24 14:12:09;;;;;;;3.80;1.77;;;22.30;67.10;;;;;;6182375;28;89381;-59
2024/01/24 14:15:11;;;;;;;3.85;1.75;;;22.30;67.20;;;;;;6179464;28;88733;-60
2024/01/24 14:18:13;;;;;;;2.67;1.20;;;22.30;67.20;;;;;;6176471;28;89096;-60
2024/01/24 14:21:17;;;;;;;3.00;1.40;;;22.30;67.20;;;;;;6182519;28;89246;-60
2024/01/24 14:24:19;;;;;;;4.20;1.75;;;22.30;67.20;;;;;;6179187;28;90035;-59
2024/01/24 14:27:24;;;;;;;5.13;2.00;;;22.30;67.20;;;;;;6181969;28;89103;-60
2024/01/24 14:30:26;;;;;;;4.35;1.85;;;22.30;67.20;;;;;;6180245;28;89307;-59
2024/01/24 14:33:28;;;;;;;8.35;1.95;;;22.30;67.30;;;;;;6181384;28;89079;-60
2024/01/24 14:36:33;;;;;;;5.07;1.42;;;22.30;67.40;;;;;;6177753;28;88514;-60
2024/01/24 14:39:37;;;;;;;4.45;1.70;;;22.30;67.70;;;;;;6179449;28;89217;-60
2024/01/24 14:42:39;;;;;;;7.40;2.17;;;22.30;67.90;;;;;;6185186;28;89464;-60
2024/01/24 14:45:41;;;;;;;8.65;2.20;;;22.30;67.90;;;;;;6181851;28;88313;-60
2024/01/24 14:48:43;;;;;;;9.25;2.13;;;22.30;68.10;;;;;;6181930;28;89984;-60
2024/01/24 14:51:47;;;;;;;9.23;3.03;;;22.30;68.80;;;;;;6180164;28;89152;-60
2024/01/24 14:54:48;;;;;;;7.20;2.25;;;22.40;69.20;;;;;;6156441;28;90184;-60
2024/01/24 14:57:51;;;;;;;8.60;2.42;;;22.30;69.40;;;;;;6177897;28;89093;-60
2024/01/24 15:00:53;;;;;;;8.38;2.20;;;22.40;69.60;;;;;;6185389;28;89197;-60
2024/01/24 15:03:55;;;;;;;7.85;2.67;;;22.30;70.80;;;;;;6174826;28;89029;-60
2024/01/24 15:06:58;;;;;;;6.82;2.83;;;22.30;71.00;;;;;;6172600;28;89589;-59
2024/01/24 15:10:00;;;;;;;61.95;18.67;;;22.30;70.80;;;;;;6178996;28;89206;-60
2024/01/24 15:13:02;;;;;;;482.33;410.13;;;22.40;71.80;;;;;;6168764;28;89069;-59
2024/01/24 15:16:05;;;;;;;413.00;367.92;;;22.40;73.20;;;;;;6175236;28;88318;-60
2024/01/24 15:19:07;;;;;;;121.20;102.68;;;22.50;74.40;;;;;;6176440;28;89045;-60
2024/01/24 15:22:11;;;;;;;67.55;55.00;;;22.70;72.30;;;;;;6174038;28;89127;-60
2024/01/24 15:25:14;;;;;;;47.53;37.45;;;22.90;71.30;;;;;;6174641;28;90057;-60
2024/01/24 15:28:16;;;;;;;31.20;24.52;;;23.00;70.70;;;;;;6174857;28;89413;-60
2024/01/24 15:31:18;;;;;;;22.52;17.10;;;23.10;70.50;;;;;;6179641;28;89121;-60
2024/01/24 15:34:20;;;;;;;22.13;15.05;;;23.10;70.20;;;;;;6179476;28;89022;-60
2024/01/24 15:37:23;;;;;;;13.15;10.77;;;23.10;70.00;;;;;;6178063;28;89144;-60
2024/01/24 15:40:25;;;;;;;13.88;9.82;;;23.10;70.10;;;;;;6183916;28;89261;-60
2024/01/24 15:43:27;;;;;;;11.80;8.25;;;23.10;70.00;;;;;;6175569;28;89053;-60
2024/01/24 15:46:29;;;;;;;10.98;7.28;;;23.00;70.00;;;;;;6178226;28;87140;-60
2024/01/24 15:49:31;;;;;;;10.95;6.50;;;23.00;69.90;;;;;;6180814;28;88015;-60
2024/01/24 15:52:35;;;;;;;10.40;6.13;;;23.00;70.00;;;;;;6180179;28;89211;-60